createdAt,value
2023-02-19T00:00:26.000Z,96.91
2023-02-19T00:01:26.000Z,96.81
2023-02-19T00:02:26.000Z,96.91
2023-02-19T00:03:26.000Z,97.02
2023-02-19T00:04:26.000Z,97.02
2023-02-19T00:05:26.000Z,97.02
2023-02-19T00:06:26.000Z,97.12
2023-02-19T00:07:26.000Z,97.12
2023-02-19T00:08:26.000Z,97.32
2023-02-19T00:09:26.000Z,97.32
2023-02-19T00:10:26.000Z,97.53
2023-02-19T00:11:26.000Z,97.63
2023-02-19T00:12:26.000Z,97.73
2023-02-19T00:13:26.000Z,97.83
2023-02-19T00:14:27.000Z,97.94
2023-02-19T00:15:27.000Z,97.94
2023-02-19T00:16:27.000Z,97.94
2023-02-19T00:17:27.000Z,97.94
2023-02-19T00:18:27.000Z,97.94
2023-02-19T00:19:27.000Z,97.94
2023-02-19T00:20:27.000Z,97.94
2023-02-19T00:21:27.000Z,97.94
2023-02-19T00:22:27.000Z,97.94
2023-02-19T00:23:27.000Z,97.94
2023-02-19T00:24:27.000Z,97.94
2023-02-19T00:25:27.000Z,98.04
2023-02-19T00:26:27.000Z,98.04
2023-02-19T00:27:27.000Z,98.14
2023-02-19T00:28:27.000Z,98.14
2023-02-19T00:29:27.000Z,98.14
2023-02-19T00:30:27.000Z,98.25
2023-02-19T00:31:27.000Z,98.25
2023-02-19T00:32:27.000Z,98.35
2023-02-19T00:33:27.000Z,98.55
2023-02-19T00:34:27.000Z,98.76
2023-02-19T00:35:27.000Z,98.96
2023-02-19T00:36:27.000Z,99.17
2023-02-19T00:37:28.000Z,99.38
2023-02-19T00:38:28.000Z,99.48
2023-02-19T00:39:28.000Z,99.73
2023-02-19T00:40:28.000Z,99.99
2023-02-19T00:41:28.000Z,99.99
2023-02-19T00:42:28.000Z,99.99
2023-02-19T00:43:28.000Z,99.99
2023-02-19T00:44:28.000Z,99.99
2023-02-19T00:45:28.000Z,99.99
2023-02-19T00:46:28.000Z,99.99
2023-02-19T00:47:28.000Z,99.99
2023-02-19T00:48:28.000Z,99.99
2023-02-19T00:49:28.000Z,99.99
2023-02-19T00:50:28.000Z,99.99
2023-02-19T00:51:28.000Z,99.99
2023-02-19T00:52:28.000Z,99.99
2023-02-19T00:53:28.000Z,99.99
2023-02-19T00:54:28.000Z,99.99
2023-02-19T00:55:28.000Z,99.99
2023-02-19T00:56:28.000Z,99.99
2023-02-19T00:57:28.000Z,99.99
2023-02-19T00:58:29.000Z,99.99
2023-02-19T00:59:29.000Z,99.99
2023-02-19T01:00:29.000Z,99.99
2023-02-19T01:01:29.000Z,99.99
2023-02-19T01:02:29.000Z,99.99
2023-02-19T01:03:29.000Z,99.99
2023-02-19T01:04:29.000Z,99.99
2023-02-19T01:05:29.000Z,99.99
2023-02-19T01:06:29.000Z,99.99
2023-02-19T01:07:29.000Z,99.99
2023-02-19T01:08:29.000Z,99.99
2023-02-19T01:09:29.000Z,99.99
2023-02-19T01:10:29.000Z,99.99
2023-02-19T01:11:29.000Z,99.99
2023-02-19T01:12:29.000Z,99.99
2023-02-19T01:13:29.000Z,99.99
2023-02-19T01:14:29.000Z,99.99
2023-02-19T01:15:29.000Z,99.99
2023-02-19T01:16:29.000Z,99.99
2023-02-19T01:17:29.000Z,99.99
2023-02-19T01:18:29.000Z,99.99
2023-02-19T01:19:30.000Z,99.99
2023-02-19T01:20:30.000Z,99.99
2023-02-19T01:21:30.000Z,99.99
2023-02-19T01:22:30.000Z,99.99
2023-02-19T01:23:30.000Z,99.99
2023-02-19T01:24:30.000Z,99.99
2023-02-19T01:25:30.000Z,99.99
2023-02-19T01:26:30.000Z,99.99
2023-02-19T01:27:30.000Z,99.99
2023-02-19T01:28:30.000Z,99.99
2023-02-19T01:29:30.000Z,99.99
2023-02-19T01:30:30.000Z,99.99
2023-02-19T01:31:30.000Z,99.99
2023-02-19T01:32:30.000Z,99.99
2023-02-19T01:33:30.000Z,99.99
2023-02-19T01:34:30.000Z,99.99
2023-02-19T01:35:30.000Z,99.99
2023-02-19T01:36:30.000Z,99.99
2023-02-19T01:37:30.000Z,99.99
2023-02-19T01:38:30.000Z,99.99
2023-02-19T01:39:31.000Z,99.99
2023-02-19T01:40:31.000Z,99.99
2023-02-19T01:41:31.000Z,99.99
2023-02-19T01:42:31.000Z,99.99
2023-02-19T01:43:31.000Z,99.99
2023-02-19T01:44:31.000Z,99.99
2023-02-19T01:45:31.000Z,99.99
2023-02-19T01:46:31.000Z,99.99
2023-02-19T01:47:31.000Z,99.99
2023-02-19T01:48:31.000Z,99.99
2023-02-19T01:49:31.000Z,99.99
2023-02-19T01:50:31.000Z,99.99
2023-02-19T01:51:31.000Z,99.99
2023-02-19T01:52:31.000Z,99.99
2023-02-19T01:53:31.000Z,99.99
2023-02-19T01:54:31.000Z,99.99
2023-02-19T01:55:31.000Z,99.99
2023-02-19T01:56:31.000Z,99.99
2023-02-19T01:57:31.000Z,99.99
2023-02-19T01:58:31.000Z,99.99
2023-02-19T01:59:31.000Z,99.99
2023-02-19T02:00:31.000Z,99.99
2023-02-19T02:01:32.000Z,99.99
2023-02-19T02:02:32.000Z,99.99
2023-02-19T02:03:32.000Z,99.99
2023-02-19T02:04:32.000Z,99.99
2023-02-19T02:05:32.000Z,99.99
2023-02-19T02:06:32.000Z,99.99
2023-02-19T02:07:32.000Z,99.99
2023-02-19T02:08:32.000Z,99.99
2023-02-19T02:09:32.000Z,99.99
2023-02-19T02:10:32.000Z,99.99
2023-02-19T02:11:32.000Z,99.99
2023-02-19T02:12:32.000Z,99.99
2023-02-19T02:13:32.000Z,99.99
2023-02-19T02:14:32.000Z,99.99
2023-02-19T02:15:32.000Z,99.99
2023-02-19T02:16:32.000Z,99.99
2023-02-19T02:17:32.000Z,99.99
2023-02-19T02:18:32.000Z,99.99
2023-02-19T02:19:32.000Z,99.99
2023-02-19T02:20:32.000Z,99.99
2023-02-19T02:21:32.000Z,99.99
2023-02-19T02:22:33.000Z,99.99
2023-02-19T02:23:33.000Z,99.99
2023-02-19T02:24:33.000Z,99.99
2023-02-19T02:25:33.000Z,99.99
2023-02-19T02:26:33.000Z,99.99
2023-02-19T02:27:33.000Z,99.99
2023-02-19T02:28:33.000Z,99.99
2023-02-19T02:29:33.000Z,99.99
2023-02-19T02:30:33.000Z,99.99
2023-02-19T02:31:33.000Z,99.99
2023-02-19T02:32:33.000Z,99.99
2023-02-19T02:33:33.000Z,99.99
2023-02-19T02:34:33.000Z,99.99
2023-02-19T02:35:33.000Z,99.99
2023-02-19T02:36:33.000Z,99.99
2023-02-19T02:37:33.000Z,99.99
2023-02-19T02:38:33.000Z,99.99
2023-02-19T02:39:33.000Z,99.99
2023-02-19T02:40:33.000Z,99.99
2023-02-19T02:41:33.000Z,99.99
2023-02-19T02:42:33.000Z,99.99
2023-02-19T02:43:33.000Z,99.99
2023-02-19T02:44:33.000Z,99.99
2023-02-19T02:45:34.000Z,99.99
2023-02-19T02:46:34.000Z,99.99
2023-02-19T02:47:34.000Z,99.99
2023-02-19T02:48:34.000Z,99.99
2023-02-19T02:49:34.000Z,99.99
2023-02-19T02:50:34.000Z,99.99
2023-02-19T02:51:34.000Z,99.99
2023-02-19T02:52:34.000Z,99.99
2023-02-19T02:53:34.000Z,99.99
2023-02-19T02:54:34.000Z,99.99
2023-02-19T02:55:34.000Z,99.99
2023-02-19T02:56:34.000Z,99.99
2023-02-19T02:57:34.000Z,99.99
2023-02-19T02:58:34.000Z,99.99
2023-02-19T02:59:34.000Z,99.99
2023-02-19T03:00:34.000Z,99.99
2023-02-19T03:01:34.000Z,99.99
2023-02-19T03:02:34.000Z,99.99
2023-02-19T03:03:34.000Z,99.99
2023-02-19T03:04:34.000Z,99.99
2023-02-19T03:05:34.000Z,99.99
2023-02-19T03:06:34.000Z,99.99
2023-02-19T03:07:34.000Z,99.99
2023-02-19T03:08:34.000Z,99.99
2023-02-19T03:09:34.000Z,99.99
2023-02-19T03:10:34.000Z,99.99
2023-02-19T03:11:35.000Z,99.99
2023-02-19T03:12:35.000Z,99.99
2023-02-19T03:13:35.000Z,99.99
2023-02-19T03:14:35.000Z,99.99
2023-02-19T03:15:35.000Z,99.99
2023-02-19T03:16:35.000Z,99.99
2023-02-19T03:17:35.000Z,99.99
2023-02-19T03:18:35.000Z,99.99
2023-02-19T03:19:35.000Z,99.99
2023-02-19T03:20:35.000Z,99.99
2023-02-19T03:21:35.000Z,99.99
2023-02-19T03:22:35.000Z,99.99
2023-02-19T03:23:35.000Z,99.99
2023-02-19T03:24:35.000Z,99.99
2023-02-19T03:25:35.000Z,99.99
2023-02-19T03:26:35.000Z,99.99
2023-02-19T03:27:35.000Z,99.99
2023-02-19T03:28:35.000Z,99.99
2023-02-19T03:29:35.000Z,99.99
2023-02-19T03:30:35.000Z,99.99
2023-02-19T03:31:35.000Z,99.99
2023-02-19T03:32:35.000Z,99.99
2023-02-19T03:33:35.000Z,99.99
2023-02-19T03:34:36.000Z,99.99
2023-02-19T03:35:36.000Z,99.99
2023-02-19T03:36:36.000Z,99.99
2023-02-19T03:37:36.000Z,99.99
2023-02-19T03:38:36.000Z,99.99
2023-02-19T03:39:36.000Z,99.99
2023-02-19T03:40:36.000Z,99.99
2023-02-19T03:41:36.000Z,99.99
2023-02-19T03:42:36.000Z,99.99
2023-02-19T03:43:36.000Z,99.99
2023-02-19T03:44:36.000Z,99.99
2023-02-19T03:45:36.000Z,99.99
2023-02-19T03:46:36.000Z,99.99
2023-02-19T03:47:36.000Z,99.99
2023-02-19T03:48:36.000Z,99.99
2023-02-19T03:49:36.000Z,99.99
2023-02-19T03:50:36.000Z,99.99
2023-02-19T03:51:36.000Z,99.99
2023-02-19T03:52:36.000Z,99.99
2023-02-19T03:53:36.000Z,99.99
2023-02-19T03:54:36.000Z,99.99
2023-02-19T03:55:36.000Z,99.99
2023-02-19T03:56:36.000Z,99.99
2023-02-19T03:57:36.000Z,99.99
2023-02-19T03:58:37.000Z,99.99
2023-02-19T03:59:37.000Z,99.99
2023-02-19T04:00:37.000Z,99.99
2023-02-19T04:01:37.000Z,99.99
2023-02-19T04:02:37.000Z,99.99
2023-02-19T04:03:37.000Z,99.99
2023-02-19T04:04:37.000Z,99.99
2023-02-19T04:05:37.000Z,99.99
2023-02-19T04:06:37.000Z,99.99
2023-02-19T04:07:37.000Z,99.99
2023-02-19T04:08:37.000Z,99.99
2023-02-19T04:09:37.000Z,99.99
2023-02-19T04:10:37.000Z,99.99
2023-02-19T04:11:37.000Z,99.99
2023-02-19T04:12:37.000Z,99.99
2023-02-19T04:13:37.000Z,99.99
2023-02-19T04:14:37.000Z,99.99
2023-02-19T04:15:37.000Z,99.99
2023-02-19T04:16:37.000Z,99.99
2023-02-19T04:17:37.000Z,99.99
2023-02-19T04:18:37.000Z,99.99
2023-02-19T04:19:37.000Z,99.99
2023-02-19T04:20:37.000Z,99.99
2023-02-19T04:21:37.000Z,99.99
2023-02-19T04:22:37.000Z,99.99
2023-02-19T04:23:38.000Z,99.99
2023-02-19T04:24:38.000Z,99.99
2023-02-19T04:25:38.000Z,99.99
2023-02-19T04:26:38.000Z,99.99
2023-02-19T04:27:38.000Z,99.99
2023-02-19T04:28:38.000Z,99.99
2023-02-19T04:29:38.000Z,99.99
2023-02-19T04:30:38.000Z,99.99
2023-02-19T04:31:38.000Z,99.99
2023-02-19T04:32:38.000Z,99.99
2023-02-19T04:33:38.000Z,99.99
2023-02-19T04:34:38.000Z,99.99
2023-02-19T04:35:38.000Z,99.99
2023-02-19T04:36:38.000Z,99.99
2023-02-19T04:37:38.000Z,99.99
2023-02-19T04:38:38.000Z,99.99
2023-02-19T04:39:38.000Z,99.99
2023-02-19T04:40:38.000Z,99.99
2023-02-19T04:41:38.000Z,99.99
2023-02-19T04:42:38.000Z,99.99
2023-02-19T04:43:38.000Z,99.99
2023-02-19T04:44:38.000Z,99.99
2023-02-19T04:45:38.000Z,99.99
2023-02-19T04:46:39.000Z,99.99
2023-02-19T04:47:39.000Z,99.99
2023-02-19T04:48:39.000Z,99.99
2023-02-19T04:49:39.000Z,99.99
2023-02-19T04:50:39.000Z,99.99
2023-02-19T04:51:39.000Z,99.99
2023-02-19T04:52:39.000Z,99.99
2023-02-19T04:53:39.000Z,99.99
2023-02-19T04:54:39.000Z,99.99
2023-02-19T04:55:39.000Z,99.99
2023-02-19T04:56:39.000Z,99.99
2023-02-19T04:57:39.000Z,99.99
2023-02-19T04:58:39.000Z,99.99
2023-02-19T04:59:39.000Z,99.99
2023-02-19T05:00:39.000Z,99.99
2023-02-19T05:01:39.000Z,99.99
2023-02-19T05:02:39.000Z,99.99
2023-02-19T05:03:39.000Z,99.99
2023-02-19T05:04:39.000Z,99.99
2023-02-19T05:05:39.000Z,99.99
2023-02-19T05:06:39.000Z,99.99
2023-02-19T05:07:39.000Z,99.99
2023-02-19T05:08:39.000Z,99.99
2023-02-19T05:09:40.000Z,99.99
2023-02-19T05:10:40.000Z,99.99
2023-02-19T05:11:40.000Z,99.99
2023-02-19T05:12:40.000Z,99.99
2023-02-19T05:13:40.000Z,99.99
2023-02-19T05:14:40.000Z,99.99
2023-02-19T05:15:40.000Z,99.99
2023-02-19T05:16:40.000Z,99.99
2023-02-19T05:17:40.000Z,99.99
2023-02-19T05:18:40.000Z,99.99
2023-02-19T05:19:40.000Z,99.99
2023-02-19T05:20:40.000Z,99.99
2023-02-19T05:21:40.000Z,99.99
2023-02-19T05:22:40.000Z,99.99
2023-02-19T05:23:40.000Z,99.99
2023-02-19T05:24:40.000Z,99.99
2023-02-19T05:25:40.000Z,99.99
2023-02-19T05:26:40.000Z,99.99
2023-02-19T05:27:40.000Z,99.99
2023-02-19T05:28:40.000Z,99.99
2023-02-19T05:29:40.000Z,99.99
2023-02-19T05:30:40.000Z,99.99
2023-02-19T05:31:40.000Z,99.99
2023-02-19T05:32:40.000Z,99.99
2023-02-19T05:33:41.000Z,99.99
2023-02-19T05:34:41.000Z,99.99
2023-02-19T05:35:41.000Z,99.99
2023-02-19T05:36:41.000Z,99.99
2023-02-19T05:37:41.000Z,99.99
2023-02-19T05:38:41.000Z,99.99
2023-02-19T05:39:41.000Z,99.99
2023-02-19T05:40:41.000Z,99.99
2023-02-19T05:41:41.000Z,99.99
2023-02-19T05:42:41.000Z,99.99
2023-02-19T05:43:41.000Z,99.99
2023-02-19T05:44:41.000Z,99.99
2023-02-19T05:45:41.000Z,99.99
2023-02-19T05:46:41.000Z,99.99
2023-02-19T05:47:41.000Z,99.99
2023-02-19T05:48:41.000Z,99.99
2023-02-19T05:49:41.000Z,99.99
2023-02-19T05:50:41.000Z,99.99
2023-02-19T05:51:41.000Z,99.99
2023-02-19T05:52:41.000Z,99.99
2023-02-19T05:53:41.000Z,99.99
2023-02-19T05:54:41.000Z,99.99
2023-02-19T05:55:41.000Z,99.99
2023-02-19T05:56:41.000Z,99.99
2023-02-19T05:57:41.000Z,99.99
2023-02-19T05:58:42.000Z,99.99
2023-02-19T05:59:42.000Z,99.99
2023-02-19T06:00:42.000Z,99.99
2023-02-19T06:01:42.000Z,99.99
2023-02-19T06:02:42.000Z,99.99
2023-02-19T06:03:42.000Z,99.99
2023-02-19T06:04:42.000Z,99.99
2023-02-19T06:05:42.000Z,99.99
2023-02-19T06:06:42.000Z,99.99
2023-02-19T06:07:42.000Z,99.99
2023-02-19T06:08:42.000Z,99.99
2023-02-19T06:09:42.000Z,99.99
2023-02-19T06:10:42.000Z,99.99
2023-02-19T06:11:42.000Z,99.99
2023-02-19T06:12:42.000Z,99.99
2023-02-19T06:13:42.000Z,99.99
2023-02-19T06:14:42.000Z,99.99
2023-02-19T06:15:42.000Z,99.99
2023-02-19T06:16:42.000Z,99.99
2023-02-19T06:17:42.000Z,99.99
2023-02-19T06:18:42.000Z,99.99
2023-02-19T06:19:42.000Z,99.99
2023-02-19T06:20:42.000Z,99.99
2023-02-19T06:21:42.000Z,99.99
2023-02-19T06:22:42.000Z,99.99
2023-02-19T06:23:42.000Z,99.99
2023-02-19T06:24:42.000Z,99.99
2023-02-19T06:25:42.000Z,99.99
2023-02-19T06:26:42.000Z,99.99
2023-02-19T06:27:43.000Z,99.99
2023-02-19T06:28:43.000Z,99.99
2023-02-19T06:29:43.000Z,99.99
2023-02-19T06:30:43.000Z,99.99
2023-02-19T06:31:43.000Z,99.99
2023-02-19T06:32:43.000Z,99.99
2023-02-19T06:33:43.000Z,99.99
2023-02-19T06:34:43.000Z,99.99
2023-02-19T06:35:43.000Z,99.99
2023-02-19T06:36:43.000Z,99.99
2023-02-19T06:37:43.000Z,99.99
2023-02-19T06:38:43.000Z,99.99
2023-02-19T06:39:43.000Z,99.99
2023-02-19T06:40:43.000Z,99.99
2023-02-19T06:41:43.000Z,99.99
2023-02-19T06:42:43.000Z,99.99
2023-02-19T06:43:43.000Z,99.99
2023-02-19T06:44:43.000Z,99.99
2023-02-19T06:45:43.000Z,99.99
2023-02-19T06:46:43.000Z,99.99
2023-02-19T06:47:43.000Z,99.99
2023-02-19T06:48:43.000Z,99.99
2023-02-19T06:49:43.000Z,99.99
2023-02-19T06:50:43.000Z,99.99
2023-02-19T06:51:44.000Z,99.99
2023-02-19T06:52:44.000Z,99.99
2023-02-19T06:53:44.000Z,99.99
2023-02-19T06:54:44.000Z,99.99
2023-02-19T06:55:44.000Z,99.99
2023-02-19T06:56:44.000Z,99.99
2023-02-19T06:57:44.000Z,99.99
2023-02-19T06:58:44.000Z,99.99
2023-02-19T06:59:44.000Z,99.99
2023-02-19T07:00:44.000Z,99.99
2023-02-19T07:01:44.000Z,99.99
2023-02-19T07:02:44.000Z,99.99
2023-02-19T07:03:44.000Z,99.99
2023-02-19T07:04:44.000Z,99.99
2023-02-19T07:05:44.000Z,99.99
2023-02-19T07:06:44.000Z,99.99
2023-02-19T07:07:44.000Z,99.99
2023-02-19T07:08:44.000Z,99.99
2023-02-19T07:09:44.000Z,99.99
2023-02-19T07:10:44.000Z,99.99
2023-02-19T07:11:44.000Z,99.99
2023-02-19T07:12:45.000Z,99.99
2023-02-19T07:13:45.000Z,99.99
2023-02-19T07:14:45.000Z,99.99
2023-02-19T07:15:45.000Z,99.99
2023-02-19T07:16:52.000Z,99.99
2023-02-19T07:17:45.000Z,99.99
2023-02-19T07:18:45.000Z,99.99
2023-02-19T07:19:45.000Z,99.99
2023-02-19T07:20:45.000Z,99.99
2023-02-19T07:21:45.000Z,99.99
2023-02-19T07:22:45.000Z,99.99
2023-02-19T07:23:45.000Z,99.99
2023-02-19T07:24:45.000Z,99.99
2023-02-19T07:25:45.000Z,99.99
2023-02-19T07:26:45.000Z,99.99
2023-02-19T07:27:45.000Z,99.99
2023-02-19T07:28:45.000Z,99.99
2023-02-19T07:29:46.000Z,99.99
2023-02-19T07:30:46.000Z,99.99
2023-02-19T07:31:46.000Z,99.99
2023-02-19T07:32:46.000Z,99.99
2023-02-19T07:33:46.000Z,99.99
2023-02-19T07:34:46.000Z,99.99
2023-02-19T07:35:46.000Z,99.99
2023-02-19T07:36:46.000Z,99.99
2023-02-19T07:37:46.000Z,99.99
2023-02-19T07:38:46.000Z,99.99
2023-02-19T07:39:46.000Z,99.99
2023-02-19T07:40:46.000Z,99.99
2023-02-19T07:41:46.000Z,99.99
2023-02-19T07:42:46.000Z,99.99
2023-02-19T07:43:46.000Z,99.99
2023-02-19T07:44:47.000Z,99.99
2023-02-19T07:45:47.000Z,99.99
2023-02-19T07:46:47.000Z,99.99
2023-02-19T07:47:47.000Z,99.99
2023-02-19T07:48:47.000Z,99.99
2023-02-19T07:49:47.000Z,99.99
2023-02-19T07:50:47.000Z,99.99
2023-02-19T07:51:47.000Z,99.99
2023-02-19T07:52:47.000Z,99.99
2023-02-19T07:53:47.000Z,99.99
2023-02-19T07:54:47.000Z,99.99
2023-02-19T07:55:47.000Z,99.99
2023-02-19T07:56:47.000Z,99.99
2023-02-19T07:57:47.000Z,99.99
2023-02-19T07:58:47.000Z,99.99
2023-02-19T07:59:48.000Z,99.99
2023-02-19T08:00:48.000Z,99.99
2023-02-19T08:01:48.000Z,99.99
2023-02-19T08:02:48.000Z,99.99
2023-02-19T08:03:48.000Z,99.99
2023-02-19T08:04:48.000Z,99.99
2023-02-19T08:05:48.000Z,99.99
2023-02-19T08:06:48.000Z,99.99
2023-02-19T08:07:48.000Z,99.99
2023-02-19T08:08:48.000Z,99.99
2023-02-19T08:09:48.000Z,99.99
2023-02-19T08:10:48.000Z,99.99
2023-02-19T08:11:48.000Z,99.99
2023-02-19T08:12:49.000Z,99.99
2023-02-19T08:13:49.000Z,99.99
2023-02-19T08:14:49.000Z,99.99
2023-02-19T08:15:49.000Z,99.99
2023-02-19T08:16:49.000Z,99.99
2023-02-19T08:17:49.000Z,99.99
2023-02-19T08:18:49.000Z,99.99
2023-02-19T08:19:49.000Z,99.99
2023-02-19T08:20:49.000Z,99.99
2023-02-19T08:21:49.000Z,99.99
2023-02-19T08:22:49.000Z,99.99
2023-02-19T08:23:49.000Z,99.99
2023-02-19T08:24:49.000Z,99.99
2023-02-19T08:25:49.000Z,99.99
2023-02-19T08:26:50.000Z,99.99
2023-02-19T08:27:50.000Z,99.99
2023-02-19T08:28:50.000Z,99.99
2023-02-19T08:29:50.000Z,99.99
2023-02-19T08:30:50.000Z,99.99
2023-02-19T08:31:50.000Z,99.99
2023-02-19T08:32:50.000Z,99.99
2023-02-19T08:33:50.000Z,99.99
2023-02-19T08:34:50.000Z,99.99
2023-02-19T08:35:50.000Z,99.99
2023-02-19T08:36:58.000Z,99.99
2023-02-19T08:37:50.000Z,99.99
2023-02-19T08:38:50.000Z,99.99
2023-02-19T08:39:50.000Z,99.99
2023-02-19T08:40:51.000Z,99.99
2023-02-19T08:41:51.000Z,99.99
2023-02-19T08:42:51.000Z,99.99
2023-02-19T08:43:51.000Z,99.99
2023-02-19T08:44:51.000Z,99.99
2023-02-19T08:45:51.000Z,99.99
2023-02-19T08:46:51.000Z,99.99
2023-02-19T08:47:51.000Z,99.99
2023-02-19T08:48:51.000Z,99.99
2023-02-19T08:49:51.000Z,99.99
2023-02-19T08:50:51.000Z,99.99
2023-02-19T08:51:51.000Z,99.99
2023-02-19T08:52:51.000Z,99.99
2023-02-19T08:53:52.000Z,99.99
2023-02-19T08:54:52.000Z,99.99
2023-02-19T08:55:52.000Z,99.99
2023-02-19T08:56:52.000Z,99.99
2023-02-19T08:57:52.000Z,99.99
2023-02-19T08:58:52.000Z,99.99
2023-02-19T08:59:52.000Z,99.99
2023-02-19T09:00:52.000Z,99.99
2023-02-19T09:01:52.000Z,99.99
2023-02-19T09:02:52.000Z,99.99
2023-02-19T09:03:52.000Z,99.99
2023-02-19T09:04:52.000Z,99.99
2023-02-19T09:05:52.000Z,99.99
2023-02-19T09:06:53.000Z,99.99
2023-02-19T09:07:53.000Z,99.99
2023-02-19T09:08:53.000Z,99.99
2023-02-19T09:09:53.000Z,99.99
2023-02-19T09:10:53.000Z,99.99
2023-02-19T09:18:11.000Z,99.99
2023-02-19T09:18:11.000Z,99.99
2023-02-19T09:19:11.000Z,99.99
2023-02-19T09:20:10.000Z,99.99
2023-02-19T09:21:10.000Z,99.99
2023-02-19T09:22:10.000Z,99.99
2023-02-19T09:23:10.000Z,99.92
2023-02-19T09:24:10.000Z,99.99
2023-02-19T09:25:10.000Z,99.99
2023-02-19T09:26:10.000Z,99.99
2023-02-19T09:27:10.000Z,99.99
2023-02-19T09:28:10.000Z,99.19
2023-02-19T09:29:10.000Z,99.19
2023-02-19T09:30:10.000Z,98.47
2023-02-19T09:31:10.000Z,97.85
2023-02-19T09:32:10.000Z,98.26
2023-02-19T09:33:10.000Z,98.57
2023-02-19T09:34:10.000Z,98.68
2023-02-19T09:35:10.000Z,98.47
2023-02-19T09:36:10.000Z,98.78
2023-02-19T09:37:10.000Z,98.88
2023-02-19T09:38:10.000Z,98.68
2023-02-19T09:39:10.000Z,98.57
2023-02-19T09:40:10.000Z,98.88
2023-02-19T09:41:10.000Z,99.04
2023-02-19T09:42:10.000Z,99.25
2023-02-19T09:43:10.000Z,99.04
2023-02-19T09:44:10.000Z,99.25
2023-02-19T09:45:10.000Z,99.77
2023-02-19T09:46:10.000Z,99.62
2023-02-19T09:47:10.000Z,99.41
2023-02-19T09:48:10.000Z,99.00
2023-02-19T09:49:10.000Z,98.27
2023-02-19T09:50:10.000Z,98.07
2023-02-19T09:51:10.000Z,98.17
2023-02-19T09:52:10.000Z,98.33
2023-02-19T09:53:10.000Z,99.37
2023-02-19T09:54:10.000Z,99.26
2023-02-19T09:55:10.000Z,99.05
2023-02-19T09:56:10.000Z,97.71
2023-02-19T09:57:09.000Z,96.47
2023-02-19T09:58:09.000Z,97.50
2023-02-19T09:59:09.000Z,96.98
2023-02-19T10:00:09.000Z,95.84
2023-02-19T10:01:09.000Z,96.57
2023-02-19T10:02:09.000Z,97.87
2023-02-19T10:03:09.000Z,98.39
2023-02-19T10:04:09.000Z,96.52
2023-02-19T10:05:09.000Z,96.42
2023-02-19T10:06:09.000Z,95.80
2023-02-19T10:07:09.000Z,96.31
2023-02-19T10:08:09.000Z,96.21
2023-02-19T10:09:09.000Z,96.62
2023-02-19T10:10:09.000Z,95.90
2023-02-19T10:11:09.000Z,94.97
2023-02-19T10:12:09.000Z,94.45
2023-02-19T10:13:09.000Z,95.80
2023-02-19T10:14:09.000Z,94.76
2023-02-19T10:15:09.000Z,94.04
2023-02-19T10:16:09.000Z,94.24
2023-02-19T10:17:09.000Z,95.54
2023-02-19T10:18:09.000Z,96.17
2023-02-19T10:19:09.000Z,95.50
2023-02-19T10:20:09.000Z,94.47
2023-02-19T10:21:09.000Z,93.85
2023-02-19T10:22:09.000Z,94.37
2023-02-19T10:23:09.000Z,93.06
2023-02-19T10:24:09.000Z,93.27
2023-02-19T10:25:09.000Z,91.93
2023-02-19T10:26:09.000Z,92.65
2023-02-19T10:27:09.000Z,92.65
2023-02-19T10:28:09.000Z,93.16
2023-02-19T10:29:09.000Z,94.06
2023-02-19T10:30:09.000Z,93.37
2023-02-19T10:31:08.000Z,92.65
2023-02-19T10:32:08.000Z,93.27
2023-02-19T10:33:08.000Z,93.37
2023-02-19T10:34:08.000Z,92.76
2023-02-19T10:35:08.000Z,92.03
2023-02-19T10:36:08.000Z,91.93
2023-02-19T10:37:08.000Z,92.55
2023-02-19T10:38:08.000Z,94.31
2023-02-19T10:39:08.000Z,92.24
2023-02-19T10:40:08.000Z,92.24
2023-02-19T10:41:08.000Z,92.34
2023-02-19T10:42:08.000Z,92.65
2023-02-19T10:43:08.000Z,93.23
2023-02-19T10:44:08.000Z,92.03
2023-02-19T10:45:08.000Z,90.37
2023-02-19T10:46:08.000Z,90.89
2023-02-19T10:47:08.000Z,91.30
2023-02-19T10:48:08.000Z,90.47
2023-02-19T10:49:08.000Z,90.58
2023-02-19T10:50:08.000Z,91.61
2023-02-19T10:51:08.000Z,89.96
2023-02-19T10:52:08.000Z,90.95
2023-02-19T10:53:08.000Z,90.64
2023-02-19T10:54:08.000Z,90.12
2023-02-19T10:55:08.000Z,89.40
2023-02-19T10:56:08.000Z,88.88
2023-02-19T10:57:08.000Z,90.23
2023-02-19T10:58:08.000Z,90.44
2023-02-19T10:59:07.000Z,90.53
2023-02-19T11:00:07.000Z,92.30
2023-02-19T11:01:07.000Z,91.67
2023-02-19T11:02:07.000Z,90.95
2023-02-19T11:03:07.000Z,89.40
2023-02-19T11:04:07.000Z,89.75
2023-02-19T11:05:07.000Z,89.54
2023-02-19T11:06:07.000Z,90.68
2023-02-19T11:07:07.000Z,92.65
2023-02-19T11:08:07.000Z,89.34
2023-02-19T11:09:07.000Z,88.61
2023-02-19T11:10:07.000Z,87.78
2023-02-19T11:11:07.000Z,86.89
2023-02-19T11:12:07.000Z,88.24
2023-02-19T11:13:07.000Z,89.48
2023-02-19T11:14:07.000Z,89.17
2023-02-19T11:15:07.000Z,89.13
2023-02-19T11:16:07.000Z,89.96
2023-02-19T11:17:07.000Z,90.37
2023-02-19T11:18:07.000Z,90.06
2023-02-19T11:19:07.000Z,90.12
2023-02-19T11:20:07.000Z,91.57
2023-02-19T11:21:07.000Z,90.64
2023-02-19T11:22:07.000Z,88.67
2023-02-19T11:23:07.000Z,88.98
2023-02-19T11:24:07.000Z,89.98
2023-02-19T11:25:07.000Z,91.11
2023-02-19T11:26:06.000Z,88.12
2023-02-19T11:27:06.000Z,88.43
2023-02-19T11:28:06.000Z,85.84
2023-02-19T11:29:06.000Z,86.36
2023-02-19T11:30:06.000Z,87.81
2023-02-19T11:31:06.000Z,87.29
2023-02-19T11:32:06.000Z,87.81
2023-02-19T11:33:06.000Z,88.84
2023-02-19T11:34:06.000Z,89.15
2023-02-19T11:35:06.000Z,87.39
2023-02-19T11:36:06.000Z,88.64
2023-02-19T11:37:06.000Z,87.97
2023-02-19T11:38:06.000Z,86.94
2023-02-19T11:39:06.000Z,86.73
2023-02-19T11:40:06.000Z,86.01
2023-02-19T11:41:06.000Z,86.52
2023-02-19T11:42:06.000Z,88.28
2023-02-19T11:43:06.000Z,88.39
2023-02-19T11:44:06.000Z,85.60
2023-02-19T11:45:06.000Z,86.32
2023-02-19T11:46:06.000Z,86.83
2023-02-19T11:47:06.000Z,85.08
2023-02-19T11:48:06.000Z,84.56
2023-02-19T11:49:06.000Z,84.87
2023-02-19T11:50:06.000Z,85.18
2023-02-19T11:51:06.000Z,86.01
2023-02-19T11:52:06.000Z,85.70
2023-02-19T11:53:06.000Z,86.21
2023-02-19T11:54:05.000Z,84.97
2023-02-19T11:55:05.000Z,85.70
2023-02-19T11:56:05.000Z,83.32
2023-02-19T11:57:05.000Z,84.45
2023-02-19T11:58:05.000Z,84.83
2023-02-19T11:59:05.000Z,85.35
2023-02-19T12:00:05.000Z,84.11
2023-02-19T12:01:05.000Z,81.84
2023-02-19T12:02:05.000Z,83.80
2023-02-19T12:03:05.000Z,84.73
2023-02-19T12:04:05.000Z,85.66
2023-02-19T12:05:05.000Z,85.93
2023-02-19T12:06:05.000Z,83.04
2023-02-19T12:07:05.000Z,82.10
2023-02-19T12:08:05.000Z,83.14
2023-02-19T12:09:05.000Z,85.41
2023-02-19T12:10:05.000Z,85.78
2023-02-19T12:11:05.000Z,83.00
2023-02-19T12:12:05.000Z,85.13
2023-02-19T12:13:05.000Z,80.00
2023-02-19T12:14:05.000Z,78.87
2023-02-19T12:15:05.000Z,80.73
2023-02-19T12:16:05.000Z,81.66
2023-02-19T12:17:05.000Z,82.14
2023-02-19T12:18:05.000Z,81.56
2023-02-19T12:19:05.000Z,80.83
2023-02-19T12:20:05.000Z,79.94
2023-02-19T12:21:05.000Z,80.15
2023-02-19T12:22:05.000Z,80.97
2023-02-19T12:23:04.000Z,80.29
2023-02-19T12:24:04.000Z,80.90
2023-02-19T12:25:04.000Z,81.84
2023-02-19T12:26:04.000Z,81.94
2023-02-19T12:27:04.000Z,80.87
2023-02-19T12:28:04.000Z,82.42
2023-02-19T12:29:04.000Z,81.28
2023-02-19T12:30:04.000Z,82.21
2023-02-19T12:31:04.000Z,80.11
2023-02-19T12:32:04.000Z,81.96
2023-02-19T12:33:04.000Z,80.32
2023-02-19T12:34:04.000Z,79.69
2023-02-19T12:35:04.000Z,79.38
2023-02-19T12:36:04.000Z,78.42
2023-02-19T12:37:04.000Z,77.70
2023-02-19T12:38:04.000Z,79.55
2023-02-19T12:39:04.000Z,77.59
2023-02-19T12:40:04.000Z,79.62
2023-02-19T12:41:04.000Z,79.62
2023-02-19T12:42:04.000Z,78.04
2023-02-19T12:43:04.000Z,78.45
2023-02-19T12:44:04.000Z,73.64
2023-02-19T12:45:04.000Z,74.67
2023-02-19T12:46:04.000Z,77.66
2023-02-19T12:47:04.000Z,77.62
2023-02-19T12:48:04.000Z,75.87
2023-02-19T12:49:04.000Z,75.67
2023-02-19T12:50:03.000Z,77.11
2023-02-19T12:51:03.000Z,78.66
2023-02-19T12:52:03.000Z,78.97
2023-02-19T12:53:03.000Z,77.83
2023-02-19T12:54:03.000Z,75.67
2023-02-19T12:55:03.000Z,77.22
2023-02-19T12:56:03.000Z,76.08
2023-02-19T12:57:03.000Z,76.70
2023-02-19T12:58:03.000Z,79.93